Terminal Aerodrome Forecast
Issued by NWS

Home | Current Version | Previous Version | Text Only | Print | Product List | Glossary On
Versions: 1 2 3 4 5 6 7 8 9 10 11 12 13 14 15 16 17 18 19 20
000
FTUS44 KOHX 161100
TAFCKV
TAF
KCKV 161120Z 1612/1712 35005KT P6SM VCSH OVC015
     FM161700 01007KT P6SM BKN040
     FM170100 34003KT P6SM SKC
     FM170800 32003KT 3SM BR SKC=

USA.gov is the U.S. government's official web portal to all federal, state and local government web resources and services.